Main page
METAR-TAF:

METAR-TAF

Airports :

Metlakatla Seaplane Base

Metlakatla, Alaska, United States

latitude: 55-07-52N, longitude: 131-34-41W, elevation: 0 ft

Current weather observation

The report was made 32 minutes ago, at 23:56 UTC
Wind 10 mph from the Southwest
Temperature 59°F
Humidity 82%
Pressure 30.08 in. Hg
Visibility: 10 miles

METAR: PAMM 192356Z AUTO 23009KT 10SM 15/12 A3008 RMK AO2 SLP281 T01500122 10150 20111 56008 $

Time: 16:28 (00:28 UTC)


TAF: missing

Weather observations and forecasts of more than 4000 airports (METAR and TAF reports).

The available stations are represented by yellow and red dots on the map.

Hover mouse over dot to see the name of the station.

Then click to see weather observations and forecasts.

To change the map : click on the green buttons with a black cross to zoom in, on the green button with a dash to zoom out, or on the green arrows for adjacent maps.


METAR-TAF: